Terminal Aerodrome Forecast
Issued by NWS Blacksburg, VA

Home | Current Version | Previous Version | Text Only | Print | Product List | Glossary On
Versions: 1 2 3 4 5 6 7 8 9 10 11 12 13 14 15 16 17 18 19 20 21 22 23 24 25 26 27 28 29 30 31 32 33 34 35 36 37 38 39
000
FTUS41 KRNK 130520
TAFBLF
TAF
KBLF 130520Z 1306/1406 29015G25KT 4SM -SHSN BR SCT009 OVC020
      TEMPO 1306/1308 1/2SM SHSN OVC005
     FM131000 30014G25KT 6SM -SHSN OVC012
     FM132100 30011G21KT P6SM BKN030
     FM140000 31010KT P6SM SCT025=

USA.gov is the U.S. government's official web portal to all federal, state and local government web resources and services.